Aviation Digital Data Service (ADDS)

Output produced by METARs form (1103 UTC 30 April 2017)
found at http://www.aviationweather.gov/adds/metars/
 
FVCZ 300900Z 16005KT 9999 -DZ BKN015 22/19 Q1028
FVHA 301000Z 11005KT 050V210 9999 BKN040 21/11 Q1027 NOSIG
TAF FVHA 301000Z 3012/0118 13006KT 9999 BKN040 
     PROB30 
     TEMPO 3013/3019 9999 -SHRA BKN040 
     BECMG 3021/3123 CAVOK 
     BECMG 0104/0106 9999 SCT015 
     BECMG 0107/0109 9999 SCT030 
     PROB30 
     TEMPO 0112/0118 9999 -SHRA BKN040
       
FVWN 300900Z 09004KT 9999 FEW030 ///// Q1026
FVBU 301000Z 14007KT 090V230 9999 SCT025 21/13 Q1028 NOSIG
TAF FVBU 301000Z 3012/0118 12012KT 9999 SCT030 
     PROB30 
     TEMPO 3012/3016 9000 -SHRA BKN030TCU 
     TEMPO 0102/0108 BKN010 
     BECMG 0108/0110 SCT020 
     FM011600 CAVOK
       
FVKB 300900Z 27003KT 9999 FEW035 25/17 Q1023
FVMV 300600Z 27003KT 9999 RA OVC010 15/15 Q1027
TAF FVMV 300400Z 3005/3015 16007KT 9999 BKN010 
     PROB30 
     TEMPO 3005/3010 8000 -DZ SCT006 BKN010 
     BECMG 3012/3014 9999 BKN015
       
FVFA 301000Z 09007KT 040V170 9999 FEW045 23/12 Q1025 NOSIG
TAF FVFA 301000Z 3012/0118 10008KT CAVOK 
     BECMG 0105/0107 9999 SCT030 
     FM01100 CAVOK